createdAt,value
2023-03-19T00:01:36.064Z,100.00
2023-03-19T00:04:02.395Z,100.00
2023-03-19T00:06:28.685Z,100.00
2023-03-19T00:08:55.001Z,100.00
2023-03-19T00:11:21.349Z,100.00
2023-03-19T00:13:47.662Z,100.00
2023-03-19T00:16:14.028Z,100.00
2023-03-19T00:18:40.346Z,100.00
2023-03-19T00:21:06.783Z,100.00
2023-03-19T00:23:33.094Z,100.00
2023-03-19T00:25:59.421Z,100.00
2023-03-19T00:28:25.767Z,100.00
2023-03-19T00:30:52.101Z,100.00
2023-03-19T00:33:18.423Z,100.00
2023-03-19T00:35:44.770Z,100.00
2023-03-19T00:38:11.095Z,100.00
2023-03-19T00:40:37.771Z,100.00
2023-03-19T00:43:04.226Z,100.00
2023-03-19T00:45:30.783Z,100.00
2023-03-19T00:47:57.614Z,100.00
2023-03-19T00:50:24.867Z,100.00
2023-03-19T00:52:51.476Z,100.00
2023-03-19T00:55:18.653Z,100.00
2023-03-19T00:57:44.963Z,100.00
2023-03-19T01:00:11.849Z,100.00
2023-03-19T01:02:38.138Z,100.00
2023-03-19T01:05:04.878Z,100.00
2023-03-19T01:07:31.167Z,100.00
2023-03-19T01:09:57.484Z,100.00
2023-03-19T01:12:23.796Z,100.00
2023-03-19T01:14:50.114Z,100.00
2023-03-19T01:17:16.406Z,100.00
2023-03-19T01:19:42.707Z,100.00
2023-03-19T01:22:09.135Z,100.00
2023-03-19T01:24:35.446Z,100.00
2023-03-19T01:27:01.767Z,100.00
2023-03-19T01:29:28.084Z,100.00
2023-03-19T01:31:54.401Z,100.00
2023-03-19T01:34:20.719Z,100.00
2023-03-19T01:36:47.045Z,100.00
2023-03-19T01:39:13.392Z,100.00
2023-03-19T01:41:40.097Z,100.00
2023-03-19T01:44:30.636Z,100.00
2023-03-19T01:46:58.634Z,100.00
2023-03-19T01:49:27.749Z,100.00
2023-03-19T01:51:55.649Z,100.00
2023-03-19T01:54:25.361Z,100.00
2023-03-19T01:56:56.807Z,100.00
2023-03-19T01:59:28.867Z,100.00
2023-03-19T02:02:01.202Z,100.00
2023-03-19T02:04:29.781Z,100.00
2023-03-19T02:06:56.755Z,100.00
2023-03-19T02:09:25.471Z,100.00
2023-03-19T02:11:52.883Z,100.00
2023-03-19T02:14:19.239Z,100.00
2023-03-19T02:16:45.628Z,100.00
2023-03-19T02:19:17.532Z,100.00
2023-03-19T02:21:43.842Z,100.00
2023-03-19T02:24:19.889Z,100.00
2023-03-19T02:26:47.222Z,100.00
2023-03-19T02:29:14.109Z,100.00
2023-03-19T02:31:40.537Z,100.00
2023-03-19T02:34:09.661Z,100.00
2023-03-19T02:36:41.859Z,100.00
2023-03-19T02:39:17.908Z,100.00
2023-03-19T02:41:45.446Z,100.00
2023-03-19T02:44:12.190Z,100.00
2023-03-19T02:46:38.583Z,100.00
2023-03-19T02:49:04.982Z,100.00
2023-03-19T02:51:31.306Z,100.00
2023-03-19T02:53:57.618Z,100.00
2023-03-19T02:56:23.913Z,100.00
2023-03-19T02:58:50.231Z,100.00
2023-03-19T03:01:16.761Z,100.00
2023-03-19T03:03:43.122Z,100.00
2023-03-19T03:06:09.443Z,100.00
2023-03-19T03:08:35.786Z,100.00
2023-03-19T03:11:02.401Z,100.00
2023-03-19T03:13:28.735Z,100.00
2023-03-19T03:15:55.207Z,100.00
2023-03-19T03:18:21.568Z,100.00
2023-03-19T03:20:47.885Z,100.00
2023-03-19T03:23:14.309Z,100.00
2023-03-19T03:25:40.605Z,100.00
2023-03-19T03:28:06.945Z,100.00
2023-03-19T03:30:33.456Z,100.00
2023-03-19T03:32:59.973Z,100.00
2023-03-19T03:35:26.332Z,100.00
2023-03-19T03:37:52.801Z,100.00
2023-03-19T03:40:19.486Z,100.00
2023-03-19T03:42:45.888Z,100.00
2023-03-19T03:45:12.504Z,100.00
2023-03-19T03:47:38.828Z,100.00
2023-03-19T03:50:05.629Z,100.00
2023-03-19T03:52:31.957Z,100.00
2023-03-19T03:54:58.294Z,100.00
2023-03-19T03:57:24.962Z,100.00
2023-03-19T03:59:51.488Z,100.00
2023-03-19T04:02:17.859Z,100.00
2023-03-19T04:04:44.322Z,100.00
2023-03-19T04:07:10.814Z,100.00
2023-03-19T04:09:37.116Z,100.00
2023-03-19T04:12:03.714Z,100.00
2023-03-19T04:14:30.225Z,100.00
2023-03-19T04:16:56.603Z,100.00
2023-03-19T04:19:23.000Z,100.00
2023-03-19T04:21:49.541Z,100.00
2023-03-19T04:24:15.941Z,100.00
2023-03-19T04:26:42.249Z,100.00
2023-03-19T04:29:08.558Z,100.00
2023-03-19T04:31:34.949Z,100.00
2023-03-19T04:34:01.280Z,100.00
2023-03-19T04:36:27.598Z,100.00
2023-03-19T04:38:53.910Z,100.00
2023-03-19T04:41:20.276Z,100.00
2023-03-19T04:43:46.571Z,100.00
2023-03-19T04:46:12.920Z,100.00
2023-03-19T04:48:39.222Z,100.00
2023-03-19T04:51:05.943Z,100.00
2023-03-19T04:53:32.280Z,100.00
2023-03-19T04:55:58.598Z,100.00
2023-03-19T04:58:24.902Z,100.00
2023-03-19T05:00:51.231Z,100.00
2023-03-19T05:03:17.568Z,100.00
2023-03-19T05:05:44.137Z,100.00
2023-03-19T05:08:10.672Z,100.00
2023-03-19T05:10:37.998Z,100.00
2023-03-19T05:13:04.885Z,100.00
2023-03-19T05:15:31.194Z,100.00
2023-03-19T05:17:57.536Z,100.00
2023-03-19T05:20:23.857Z,100.00
2023-03-19T05:22:52.697Z,100.00
2023-03-19T05:25:19.159Z,100.00
2023-03-19T05:27:45.869Z,100.00
2023-03-19T05:30:12.475Z,100.00
2023-03-19T05:32:38.814Z,100.00
2023-03-19T05:35:05.682Z,100.00
2023-03-19T05:37:32.539Z,100.00
2023-03-19T05:39:58.903Z,100.00
2023-03-19T05:42:25.274Z,100.00
2023-03-19T05:44:51.671Z,100.00
2023-03-19T05:47:18.081Z,100.00
2023-03-19T05:49:44.396Z,100.00
2023-03-19T05:52:10.826Z,100.00
2023-03-19T05:54:37.113Z,100.00
2023-03-19T05:57:05.080Z,100.00
2023-03-19T05:59:31.528Z,100.00
2023-03-19T06:01:57.951Z,100.00
2023-03-19T06:04:24.354Z,100.00
2023-03-19T06:06:50.696Z,100.00
2023-03-19T06:09:17.201Z,100.00
2023-03-19T06:11:43.541Z,100.00
2023-03-19T06:14:09.929Z,100.00
2023-03-19T06:16:36.437Z,100.00
2023-03-19T06:19:03.189Z,100.00
2023-03-19T06:21:29.527Z,100.00
2023-03-19T06:23:56.406Z,100.00
2023-03-19T06:26:23.594Z,100.00
2023-03-19T06:28:50.035Z,100.00
2023-03-19T06:31:16.809Z,100.00
2023-03-19T06:33:43.210Z,100.00
2023-03-19T06:36:09.653Z,100.00
2023-03-19T06:38:36.081Z,100.00
2023-03-19T06:41:02.575Z,100.00
2023-03-19T06:43:29.177Z,100.00
2023-03-19T06:45:55.649Z,100.00
2023-03-19T06:48:22.054Z,100.00
2023-03-19T06:50:48.385Z,100.00
2023-03-19T06:53:14.932Z,100.00
2023-03-19T06:55:41.480Z,98.31
2023-03-19T06:58:07.769Z,97.30
2023-03-19T07:00:34.304Z,95.48
2023-03-19T07:03:00.700Z,93.33
2023-03-19T07:05:26.996Z,89.53
2023-03-19T07:07:53.336Z,88.40
2023-03-19T07:10:20.637Z,87.29
2023-03-19T07:12:47.311Z,85.97
2023-03-19T07:15:13.977Z,85.17
2023-03-19T07:17:40.597Z,83.86
2023-03-19T07:20:07.169Z,83.17
2023-03-19T07:22:33.490Z,82.53
2023-03-19T07:24:59.798Z,82.91
2023-03-19T07:27:26.092Z,83.07
2023-03-19T07:29:52.434Z,82.50
2023-03-19T07:32:18.732Z,83.62
2023-03-19T07:34:45.057Z,84.30
2023-03-19T07:37:11.522Z,84.47
2023-03-19T07:39:37.843Z,84.26
2023-03-19T07:42:04.813Z,84.10
2023-03-19T07:44:31.149Z,84.39
2023-03-19T07:46:57.466Z,85.89
2023-03-19T07:49:23.993Z,84.45
2023-03-19T07:51:50.298Z,84.30
2023-03-19T07:54:16.681Z,83.14
2023-03-19T07:56:43.051Z,83.15
2023-03-19T07:59:09.429Z,83.97
2023-03-19T08:01:35.791Z,84.69
2023-03-19T08:04:02.342Z,84.22
2023-03-19T08:06:28.687Z,84.01
2023-03-19T08:08:54.986Z,84.74
2023-03-19T08:11:22.289Z,85.22
2023-03-19T08:13:48.580Z,85.25
2023-03-19T08:16:14.944Z,84.75
2023-03-19T08:18:41.444Z,85.94
2023-03-19T08:21:07.900Z,86.26
2023-03-19T08:23:34.358Z,86.72
2023-03-19T08:26:01.080Z,84.73
2023-03-19T08:28:27.412Z,84.13
2023-03-19T08:30:54.144Z,84.52
2023-03-19T08:33:20.490Z,84.53
2023-03-19T08:35:46.880Z,84.64
2023-03-19T08:38:13.230Z,83.74
2023-03-19T08:40:39.586Z,82.31
2023-03-19T08:43:05.919Z,80.51
2023-03-19T08:45:32.240Z,79.05
2023-03-19T08:47:58.533Z,79.08
2023-03-19T08:50:24.887Z,80.24
2023-03-19T08:52:51.213Z,79.51
2023-03-19T08:55:17.696Z,78.15
2023-03-19T08:57:44.055Z,77.99
2023-03-19T09:00:11.005Z,77.51
2023-03-19T09:02:37.333Z,76.30
2023-03-19T09:05:03.886Z,75.16
2023-03-19T09:07:30.213Z,74.98
2023-03-19T09:09:56.565Z,72.31
2023-03-19T09:12:22.905Z,71.39
2023-03-19T09:14:49.259Z,72.38
2023-03-19T09:17:15.619Z,71.22
2023-03-19T09:19:42.001Z,69.49
2023-03-19T09:22:08.399Z,68.78
2023-03-19T09:24:34.754Z,67.40
2023-03-19T09:27:01.070Z,67.80
2023-03-19T09:29:27.431Z,67.32
2023-03-19T09:31:53.766Z,66.32
2023-03-19T09:34:20.109Z,66.03
2023-03-19T09:36:46.871Z,66.21
2023-03-19T09:39:13.392Z,66.75
2023-03-19T09:42:25.336Z,66.15
2023-03-19T09:44:53.166Z,66.06
2023-03-19T09:47:26.910Z,65.85
2023-03-19T09:49:56.101Z,64.07
2023-03-19T09:52:41.173Z,64.25
2023-03-19T09:55:20.304Z,63.21
2023-03-19T09:57:47.344Z,62.12
2023-03-19T10:00:26.404Z,62.57
2023-03-19T10:03:22.375Z,64.03
2023-03-19T10:06:09.826Z,66.04
2023-03-19T10:09:13.856Z,65.88
2023-03-19T10:11:54.461Z,65.13
2023-03-19T10:14:45.160Z,65.56
2023-03-19T10:17:19.270Z,64.90
2023-03-19T10:19:53.361Z,64.73
2023-03-19T10:22:27.744Z,64.66
2023-03-19T10:24:57.746Z,63.32
2023-03-19T10:27:28.022Z,64.79
2023-03-19T10:29:54.977Z,64.22
2023-03-19T10:32:40.919Z,64.01
2023-03-19T10:35:16.833Z,62.86
2023-03-19T10:37:43.308Z,61.93
2023-03-19T10:40:22.099Z,60.00
2023-03-19T10:43:06.142Z,60.78
2023-03-19T10:45:36.535Z,60.85
2023-03-19T10:48:05.125Z,60.60
2023-03-19T10:50:31.484Z,61.48
2023-03-19T10:53:26.535Z,61.76
2023-03-19T10:56:05.630Z,62.24
2023-03-19T10:58:35.550Z,63.18
2023-03-19T11:01:08.794Z,62.33
2023-03-19T11:03:40.700Z,62.96
2023-03-19T11:06:14.973Z,63.19
2023-03-19T11:08:41.522Z,63.64
2023-03-19T11:11:23.324Z,63.14
2023-03-19T11:13:49.717Z,62.99
2023-03-19T11:16:16.193Z,63.05
2023-03-19T11:18:42.633Z,62.45
2023-03-19T11:21:21.431Z,62.36
2023-03-19T11:23:52.513Z,62.15
2023-03-19T11:26:20.160Z,62.53
2023-03-19T11:28:51.245Z,63.31
2023-03-19T11:31:34.201Z,62.95
2023-03-19T11:34:12.847Z,64.07
2023-03-19T11:36:51.494Z,63.28
2023-03-19T11:39:27.106Z,64.10
2023-03-19T11:42:25.966Z,64.04
2023-03-19T11:44:55.340Z,64.40
2023-03-19T11:47:38.066Z,62.58
2023-03-19T11:50:13.897Z,62.89
2023-03-19T11:53:02.083Z,63.28
2023-03-19T11:55:43.576Z,61.48
2023-03-19T11:58:33.603Z,62.54
2023-03-19T12:01:15.348Z,62.46
2023-03-19T12:03:47.486Z,63.38
2023-03-19T12:06:34.603Z,62.55
2023-03-19T12:09:04.040Z,61.32
2023-03-19T12:11:48.400Z,61.74
2023-03-19T12:14:45.444Z,63.08
2023-03-19T12:17:56.645Z,61.79
2023-03-19T12:20:51.726Z,62.33
2023-03-19T12:23:39.995Z,63.09
2023-03-19T12:26:35.495Z,61.59
2023-03-19T12:29:07.637Z,61.87
2023-03-19T12:31:43.125Z,61.88
2023-03-19T12:34:24.519Z,61.66
2023-03-19T12:37:17.371Z,61.91
2023-03-19T12:40:05.514Z,61.46
2023-03-19T12:42:38.040Z,61.57
2023-03-19T12:45:15.948Z,62.77
2023-03-19T12:47:45.144Z,62.31
2023-03-19T12:50:14.765Z,61.91
2023-03-19T12:52:43.666Z,62.47
2023-03-19T12:55:39.365Z,61.42
2023-03-19T12:58:13.189Z,60.99
2023-03-19T13:00:59.727Z,61.69
2023-03-19T13:03:41.689Z,61.82
2023-03-19T13:06:15.517Z,65.06
2023-03-19T13:08:48.135Z,64.12
2023-03-19T13:11:34.745Z,63.34
2023-03-19T13:14:10.767Z,61.79
2023-03-19T13:16:44.223Z,61.61
2023-03-19T13:19:16.236Z,61.00
2023-03-19T13:21:42.878Z,62.06
2023-03-19T13:24:49.125Z,61.59
2023-03-19T13:27:26.055Z,61.19
2023-03-19T13:30:07.711Z,63.12
2023-03-19T13:32:41.135Z,62.27
2023-03-19T13:35:27.690Z,63.23
2023-03-19T13:38:04.672Z,62.90
2023-03-19T13:40:43.641Z,60.44
2023-03-19T13:43:28.992Z,59.18
2023-03-19T13:46:10.752Z,59.60
2023-03-19T13:49:17.605Z,61.82
2023-03-19T13:51:44.097Z,62.98
2023-03-19T13:54:13.236Z,62.77
2023-03-19T13:56:58.696Z,60.56
2023-03-19T13:59:27.326Z,62.01
2023-03-19T14:01:54.517Z,61.88
2023-03-19T14:04:28.601Z,61.70
2023-03-19T14:07:19.129Z,61.25
2023-03-19T14:09:51.437Z,60.23
2023-03-19T14:12:17.730Z,60.96
2023-03-19T14:14:49.103Z,60.01
2023-03-19T14:17:26.367Z,59.94
2023-03-19T14:19:54.255Z,61.15
2023-03-19T14:22:54.486Z,62.60
2023-03-19T14:25:23.251Z,62.25
2023-03-19T14:27:59.784Z,61.36
2023-03-19T14:30:35.103Z,62.51
2023-03-19T14:33:05.916Z,61.71
2023-03-19T14:35:36.661Z,60.82
2023-03-19T14:38:13.795Z,61.84
2023-03-19T14:40:47.014Z,61.77
2023-03-19T14:43:25.849Z,61.50
2023-03-19T14:46:05.155Z,61.58
2023-03-19T14:48:53.134Z,60.87
2023-03-19T14:51:47.248Z,62.10
2023-03-19T14:54:28.395Z,61.20
2023-03-19T14:56:56.680Z,60.19
2023-03-19T14:59:23.325Z,60.24
2023-03-19T15:01:53.234Z,60.79
2023-03-19T15:04:25.430Z,59.64
2023-03-19T15:06:55.789Z,60.20
2023-03-19T15:09:22.324Z,60.91
2023-03-19T15:12:13.718Z,62.01
2023-03-19T15:15:09.845Z,63.25
2023-03-19T15:17:38.658Z,61.56
2023-03-19T15:20:20.973Z,62.05
2023-03-19T15:22:55.605Z,63.24
2023-03-19T15:25:22.841Z,61.32
2023-03-19T15:28:13.728Z,62.11
2023-03-19T15:30:53.792Z,61.65
2023-03-19T15:33:39.647Z,63.09
2023-03-19T15:36:28.256Z,62.38
2023-03-19T15:39:00.523Z,61.44
2023-03-19T15:41:30.497Z,61.44
2023-03-19T15:43:56.899Z,62.70
2023-03-19T15:46:27.071Z,62.62
2023-03-19T15:49:10.114Z,63.87
2023-03-19T15:51:37.044Z,64.74
2023-03-19T15:54:04.825Z,68.57
2023-03-19T15:56:31.309Z,72.20
2023-03-19T15:58:58.664Z,74.04
2023-03-19T16:01:26.585Z,75.33
2023-03-19T16:04:08.926Z,75.74
2023-03-19T16:06:39.981Z,76.87
2023-03-19T16:09:16.994Z,79.01
2023-03-19T16:11:45.446Z,81.36
2023-03-19T16:14:22.886Z,83.31
2023-03-19T16:16:49.762Z,84.41
2023-03-19T16:19:36.199Z,86.34
2023-03-19T16:22:36.301Z,87.21
2023-03-19T16:25:02.634Z,88.09
2023-03-19T16:27:36.205Z,88.85
2023-03-19T16:30:03.947Z,88.98
2023-03-19T16:32:32.312Z,89.48
2023-03-19T16:35:17.428Z,88.72
2023-03-19T16:37:44.716Z,87.92
2023-03-19T16:40:13.758Z,88.53
2023-03-19T16:42:44.545Z,89.51
2023-03-19T16:45:16.749Z,90.31
2023-03-19T16:47:57.218Z,91.90
2023-03-19T16:50:39.871Z,91.90
2023-03-19T16:53:26.664Z,91.33
2023-03-19T16:55:55.224Z,91.83
2023-03-19T16:58:43.346Z,91.60
2023-03-19T17:01:22.085Z,91.36
2023-03-19T17:03:49.324Z,91.89
2023-03-19T17:06:16.339Z,92.16
2023-03-19T17:08:43.303Z,91.90
2023-03-19T17:11:20.670Z,91.55
2023-03-19T17:13:47.075Z,92.51
2023-03-19T17:16:13.438Z,93.15
2023-03-19T17:18:42.191Z,93.91
2023-03-19T17:21:24.860Z,93.88
2023-03-19T17:23:51.753Z,94.61
2023-03-19T17:26:26.550Z,94.83
2023-03-19T17:28:53.882Z,95.72
2023-03-19T17:31:26.088Z,95.55
2023-03-19T17:33:58.604Z,95.92
2023-03-19T17:36:25.333Z,96.52
2023-03-19T17:38:54.226Z,96.85
2023-03-19T17:41:21.607Z,96.94
2023-03-19T17:43:48.446Z,96.75
2023-03-19T17:46:20.021Z,96.71
2023-03-19T17:48:48.005Z,97.16
2023-03-19T17:51:15.480Z,97.28
2023-03-19T17:53:46.864Z,97.85
2023-03-19T17:56:18.084Z,98.11
2023-03-19T17:58:45.260Z,98.44
2023-03-19T18:01:17.863Z,98.71
2023-03-19T18:03:44.342Z,98.66
2023-03-19T18:06:17.459Z,98.63
2023-03-19T18:08:45.071Z,99.36
2023-03-19T18:11:12.306Z,99.65
2023-03-19T18:13:39.056Z,100.00
2023-03-19T18:16:14.086Z,100.00
2023-03-19T18:18:40.562Z,100.00
2023-03-19T18:21:13.071Z,100.00
2023-03-19T18:23:39.372Z,100.00
2023-03-19T18:26:06.042Z,100.00
2023-03-19T18:28:32.515Z,100.00
2023-03-19T18:31:00.159Z,100.00
2023-03-19T18:33:30.036Z,100.00
2023-03-19T18:35:57.772Z,100.00
2023-03-19T18:38:26.238Z,100.00
2023-03-19T18:40:54.078Z,100.00
2023-03-19T18:43:20.714Z,100.00
2023-03-19T18:45:51.066Z,100.00
2023-03-19T18:48:29.279Z,100.00
2023-03-19T18:50:56.045Z,100.00
2023-03-19T18:53:23.189Z,100.00
2023-03-19T18:55:51.490Z,100.00
2023-03-19T18:58:21.491Z,100.00
2023-03-19T19:00:49.782Z,100.00
2023-03-19T19:03:19.669Z,100.00
2023-03-19T19:05:46.358Z,100.00
2023-03-19T19:08:16.606Z,100.00
2023-03-19T19:10:49.089Z,100.00
2023-03-19T19:13:20.660Z,100.00
2023-03-19T19:15:47.783Z,100.00
2023-03-19T19:18:26.648Z,100.00
2023-03-19T19:20:53.773Z,100.00
2023-03-19T19:23:21.895Z,100.00
2023-03-19T19:25:50.125Z,100.00
2023-03-19T19:28:21.183Z,100.00
2023-03-19T19:30:49.131Z,100.00
2023-03-19T19:33:17.871Z,100.00
2023-03-19T19:35:44.561Z,100.00
2023-03-19T19:38:10.982Z,100.00
2023-03-19T19:40:37.874Z,100.00
2023-03-19T19:43:04.375Z,100.00
2023-03-19T19:45:38.351Z,100.00
2023-03-19T19:48:12.833Z,100.00
2023-03-19T19:50:39.156Z,100.00
2023-03-19T19:53:05.458Z,100.00
2023-03-19T19:55:32.507Z,100.00
2023-03-19T19:57:59.093Z,100.00
2023-03-19T20:00:30.363Z,100.00
2023-03-19T20:02:58.492Z,100.00
2023-03-19T20:05:33.481Z,100.00
2023-03-19T20:08:01.571Z,100.00
2023-03-19T20:10:30.401Z,100.00
2023-03-19T20:13:00.188Z,100.00
2023-03-19T20:15:35.230Z,100.00
2023-03-19T20:18:03.803Z,100.00
2023-03-19T20:20:32.597Z,100.00
2023-03-19T20:23:00.710Z,100.00
2023-03-19T20:25:30.088Z,100.00
2023-03-19T20:27:58.507Z,100.00
2023-03-19T20:30:36.888Z,100.00
2023-03-19T20:33:03.457Z,100.00
2023-03-19T20:35:33.288Z,100.00
2023-03-19T20:38:01.122Z,100.00
2023-03-19T20:40:54.304Z,100.00
2023-03-19T20:43:25.534Z,100.00
2023-03-19T20:45:53.984Z,100.00
2023-03-19T20:48:20.354Z,100.00
2023-03-19T20:50:47.275Z,100.00
2023-03-19T20:53:13.955Z,100.00
2023-03-19T20:55:42.493Z,100.00
2023-03-19T20:58:34.281Z,100.00
2023-03-19T21:01:00.887Z,100.00
2023-03-19T21:03:30.576Z,100.00
2023-03-19T21:06:02.711Z,100.00
2023-03-19T21:08:33.827Z,99.51
2023-03-19T21:11:01.010Z,96.16
2023-03-19T21:13:27.868Z,94.97
2023-03-19T21:15:54.502Z,94.28
2023-03-19T21:18:20.968Z,94.69
2023-03-19T21:20:51.983Z,95.56
2023-03-19T21:23:23.059Z,95.29
2023-03-19T21:25:49.474Z,94.59
2023-03-19T21:28:28.024Z,94.28
2023-03-19T21:30:54.336Z,94.66
2023-03-19T21:33:32.257Z,94.44
2023-03-19T21:35:59.876Z,94.47
2023-03-19T21:38:27.285Z,95.30
2023-03-19T21:41:03.476Z,96.02
2023-03-19T21:43:33.983Z,96.32
2023-03-19T21:46:10.899Z,95.41
2023-03-19T21:48:44.155Z,95.46
2023-03-19T21:51:13.578Z,95.44
2023-03-19T21:53:40.677Z,95.76
2023-03-19T21:56:25.193Z,95.05
2023-03-19T21:58:52.951Z,95.19
2023-03-19T22:01:24.580Z,96.37
2023-03-19T22:03:55.929Z,95.76
2023-03-19T22:06:22.814Z,96.12
2023-03-19T22:08:49.653Z,96.53
2023-03-19T22:11:37.298Z,96.81
2023-03-19T22:14:09.666Z,97.30
2023-03-19T22:16:35.982Z,97.24
2023-03-19T22:19:02.338Z,97.40
2023-03-19T22:21:29.184Z,97.12
2023-03-19T22:23:55.499Z,97.05
2023-03-19T22:26:27.335Z,97.24
2023-03-19T22:28:55.608Z,98.42
2023-03-19T22:31:22.359Z,99.49
2023-03-19T22:33:49.054Z,99.76
2023-03-19T22:36:15.529Z,100.00
2023-03-19T22:38:42.267Z,100.00
2023-03-19T22:41:16.953Z,100.00
2023-03-19T22:43:44.648Z,100.00
2023-03-19T22:46:14.560Z,100.00
2023-03-19T22:48:42.037Z,100.00
2023-03-19T22:51:08.433Z,100.00
2023-03-19T22:53:36.540Z,100.00
2023-03-19T22:56:04.068Z,100.00
2023-03-19T22:58:30.472Z,100.00
2023-03-19T23:00:56.972Z,100.00
2023-03-19T23:03:26.075Z,100.00
2023-03-19T23:05:56.149Z,100.00
2023-03-19T23:08:22.488Z,100.00
2023-03-19T23:10:50.087Z,100.00
2023-03-19T23:13:16.464Z,100.00
2023-03-19T23:15:43.982Z,100.00
2023-03-19T23:18:26.019Z,100.00
2023-03-19T23:20:52.326Z,100.00
2023-03-19T23:23:18.710Z,100.00
2023-03-19T23:25:46.054Z,100.00
2023-03-19T23:28:19.714Z,100.00
2023-03-19T23:30:47.066Z,100.00
2023-03-19T23:33:14.252Z,100.00
2023-03-19T23:35:40.649Z,100.00
2023-03-19T23:38:07.018Z,100.00
2023-03-19T23:40:33.859Z,100.00
2023-03-19T23:43:01.042Z,100.00
2023-03-19T23:45:40.776Z,100.00
2023-03-19T23:48:36.605Z,100.00
2023-03-19T23:51:02.976Z,100.00
2023-03-19T23:53:29.899Z,100.00
2023-03-19T23:55:59.900Z,100.00
2023-03-19T23:58:37.517Z,100.00
